Glen Ridge, Florida
Current Conditions -  °F | °C
As of 2:53 PM on Wednesday 17 Dec 2014 (Local Time) from KPBI Reporting Station
Scattered Clouds Scattered Clouds  
Wind Chill: 79°   Ceiling: Unl
Heat Index: 80°   Visibility: 10mi
Dew Point: 56°   Wind: 6mph
Humidity: 45%   Direction: 230°SW
Pressure: 30.09"   Gusts: NA
Location:  26.6662°N, 80.0908°W
Report Text: KPBI 171953Z 23005KT 10SM FEW033 SCT250 26/13 A3009 RMK AO2 SLP187 T02610133
Loading
Personal Weather Stations






























Interactive Weather Map New forecast layout! Learn more

10-Day Weather Forecast

Advertisements
Track Severe Weather on mobile